Time;durP1;ratioP1;P1;durP2;ratioP2;P2;SDS_P1;SDS_P2;PMS_P1;PMS_P2;Temp;Humidity;BMP_temperature;BMP_pressure;BME280_temperature;BME280_humidity;BME280_pressure;Samples;Min_cycle;Max_cycle;Signal;HPM_P1;HPM_P2
2021/09/23 01:06:58;;;;;;;7.95;5.82;;;8.40;99.90;;;;;;4919873;29;20219;-95
2021/09/23 01:09:40;;;;;;;7.32;5.88;;;8.40;99.90;;;;;;4923481;29;20183;-94
2021/09/23 01:12:30;;;;;;;6.75;5.70;;;8.40;99.90;;;;;;4923537;29;20275;-95
2021/09/23 01:15:00;;;;;;;6.20;5.60;;;8.30;99.90;;;;;;4923540;29;20863;-94
2021/09/23 01:17:28;;;;;;;8.00;6.07;;;8.30;99.90;;;;;;4923067;29;20209;-95
2021/09/23 01:22:54;;;;;;;6.30;5.70;;;8.30;99.90;;;;;;4919494;29;20197;-95
2021/09/23 01:25:29;;;;;;;7.68;5.43;;;8.30;99.90;;;;;;4922665;29;20235;-95
2021/09/23 01:28:01;;;;;;;6.82;5.20;;;8.30;99.90;;;;;;4922915;29;20202;-95
2021/09/23 01:30:28;;;;;;;6.35;4.90;;;8.30;99.90;;;;;;4923038;29;20283;-95
2021/09/23 01:33:27;;;;;;;6.20;5.60;;;8.20;99.90;;;;;;4922684;29;20202;-94
2021/09/23 01:53:52;;;;;;;6.88;5.45;;;8.10;99.90;;;;;;4920963;29;20222;-95
2021/09/23 01:56:20;;;;;;;4.90;4.43;;;8.10;99.90;;;;;;4922059;29;20217;-95
2021/09/23 01:58:53;;;;;;;5.18;4.68;;;8.10;99.90;;;;;;4922028;29;20214;-94
2021/09/23 02:01:24;;;;;;;5.05;4.55;;;8.10;99.90;;;;;;4922472;29;20190;-95
2021/09/23 02:03:51;;;;;;;6.30;4.85;;;8.00;99.90;;;;;;4922403;29;20194;-95
2021/09/23 02:06:19;;;;;;;6.28;5.65;;;8.00;99.90;;;;;;4921459;29;20221;-95
2021/09/23 02:08:48;;;;;;;4.25;3.85;;;8.00;99.90;;;;;;4922386;29;20231;-95
2021/09/23 02:11:16;;;;;;;5.85;5.25;;;8.00;99.90;;;;;;4922292;29;20189;-96
2021/09/23 02:13:44;;;;;;;7.40;5.07;;;8.00;99.90;;;;;;4922259;29;20206;-94
2021/09/23 02:16:12;;;;;;;6.35;4.85;;;8.00;99.90;;;;;;4921514;29;20270;-94
2021/09/23 02:18:40;;;;;;;7.68;5.47;;;7.90;99.90;;;;;;4922279;29;20218;-94
2021/09/23 02:21:07;;;;;;;6.68;5.18;;;7.90;99.90;;;;;;4921802;29;20204;-94
2021/09/23 02:23:38;;;;;;;7.18;4.90;;;7.90;99.90;;;;;;4922048;29;20214;-95
2021/09/23 02:26:09;;;;;;;6.72;5.30;;;7.90;99.90;;;;;;4922087;29;20294;-94
2021/09/23 02:28:38;;;;;;;7.90;5.72;;;7.80;99.90;;;;;;4922555;29;20206;-94
2021/09/23 02:31:09;;;;;;;6.35;5.20;;;7.80;99.90;;;;;;4921769;29;20186;-93
2021/09/23 02:33:39;;;;;;;5.57;5.00;;;7.90;99.90;;;;;;4921914;29;20205;-95
2021/09/23 02:36:07;;;;;;;7.35;6.20;;;7.90;99.90;;;;;;4921734;29;20215;-94
2021/09/23 02:38:37;;;;;;;7.00;5.90;;;7.80;99.90;;;;;;4921895;29;20225;-94
2021/09/23 02:41:08;;;;;;;7.75;5.90;;;7.90;99.90;;;;;;4921518;29;20222;-94
2021/09/23 02:43:56;;;;;;;6.13;4.93;;;7.90;99.90;;;;;;4921541;29;20206;-94
2021/09/23 02:46:35;;;;;;;7.47;5.80;;;7.90;99.90;;;;;;4921707;29;20219;-94
2021/09/23 02:49:03;;;;;;;7.35;5.75;;;7.80;99.90;;;;;;4907143;29;20186;-95
2021/09/23 02:56:46;;;;;;;6.90;5.28;;;7.80;99.90;;;;;;4904001;29;20234;-94
2021/09/23 02:59:17;;;;;;;7.80;5.55;;;7.80;99.90;;;;;;4906435;29;20210;-94
2021/09/23 03:01:52;;;;;;;5.97;5.30;;;7.80;99.90;;;;;;4906574;29;20200;-95
2021/09/23 03:04:22;;;;;;;8.18;5.90;;;7.80;99.90;;;;;;4906982;29;20205;-95
2021/09/23 03:06:49;;;;;;;7.63;5.93;;;7.70;99.90;;;;;;4906063;29;20223;-94
2021/09/23 03:09:17;;;;;;;6.63;5.53;;;7.70;99.90;;;;;;4906494;29;20203;-94
2021/09/23 03:11:45;;;;;;;8.07;6.40;;;7.70;99.90;;;;;;4906487;29;20183;-94
2021/09/23 03:14:18;;;;;;;7.25;5.70;;;7.70;99.90;;;;;;4905833;29;20187;-94
2021/09/23 03:16:49;;;;;;;6.70;5.40;;;7.60;99.90;;;;;;4906467;29;20213;-93
2021/09/23 03:19:18;;;;;;;6.30;5.45;;;7.60;99.90;;;;;;4906396;29;20215;-93
2021/09/23 03:21:49;;;;;;;8.05;6.15;;;7.50;99.90;;;;;;4906675;29;20191;-92
2021/09/23 03:29:23;;;;;;;6.10;5.20;;;7.50;99.90;;;;;;4903794;29;20203;-95
2021/09/23 03:31:53;;;;;;;6.97;5.80;;;7.40;99.90;;;;;;4905794;29;20211;-95
2021/09/23 03:34:20;;;;;;;6.38;5.78;;;7.50;99.90;;;;;;4905054;29;20204;-93
2021/09/23 03:36:47;;;;;;;7.05;6.05;;;7.40;99.90;;;;;;4904598;29;20218;-95
2021/09/23 03:39:17;;;;;;;8.75;5.65;;;7.40;99.90;;;;;;4904907;29;20248;-94
2021/09/23 03:41:44;;;;;;;5.85;5.25;;;7.30;99.90;;;;;;4904827;29;20274;-94
2021/09/23 03:44:14;;;;;;;7.43;5.65;;;7.30;99.90;;;;;;4904530;29;20267;-95
2021/09/23 03:46:43;;;;;;;5.70;5.00;;;7.40;99.90;;;;;;4904583;29;20227;-95
2021/09/23 03:51:55;;;;;;;5.53;4.97;;;7.30;99.90;;;;;;4903602;29;20294;-94
2021/09/23 03:54:26;;;;;;;7.47;6.40;;;7.30;99.90;;;;;;4905253;29;20183;-94
2021/09/23 03:56:57;;;;;;;7.57;6.28;;;7.30;99.90;;;;;;4904061;29;20498;-94
2021/09/23 03:59:24;;;;;;;8.40;6.85;;;7.30;99.90;;;;;;4904512;29;20227;-94
2021/09/23 04:01:55;;;;;;;8.90;5.95;;;7.30;99.90;;;;;;4905125;29;20183;-94
2021/09/23 04:04:25;;;;;;;7.25;5.22;;;7.30;99.90;;;;;;4905011;29;20285;-94
2021/09/23 04:06:59;;;;;;;6.63;5.40;;;7.30;99.90;;;;;;4904617;29;20235;-94
2021/09/23 04:09:26;;;;;;;7.95;5.65;;;7.20;99.90;;;;;;4904544;29;20187;-94
2021/09/23 04:11:53;;;;;;;6.63;5.70;;;7.20;99.90;;;;;;4904653;29;20234;-94
2021/09/23 04:14:21;;;;;;;6.93;5.85;;;7.20;99.90;;;;;;4904601;29;20227;-94
2021/09/23 04:16:50;;;;;;;8.35;6.35;;;7.20;99.90;;;;;;4903858;29;20218;-94
2021/09/23 04:19:30;;;;;;;7.75;5.95;;;7.20;99.90;;;;;;4904479;29;20231;-94
2021/09/23 04:22:00;;;;;;;7.90;5.75;;;7.20;99.90;;;;;;4904913;29;20187;-95
2021/09/23 04:24:28;;;;;;;8.25;6.38;;;7.10;99.90;;;;;;4903928;29;20190;-93
2021/09/23 04:26:58;;;;;;;6.25;5.72;;;7.10;99.90;;;;;;4904154;29;20211;-94
2021/09/23 04:29:26;;;;;;;8.55;5.65;;;7.00;99.90;;;;;;4904814;29;20214;-93
2021/09/23 04:31:57;;;;;;;8.20;7.00;;;7.00;99.90;;;;;;4904070;29;20191;-94
2021/09/23 04:34:27;;;;;;;5.75;4.90;;;7.00;99.90;;;;;;4904430;29;20194;-94
2021/09/23 04:36:55;;;;;;;7.43;5.50;;;7.10;99.90;;;;;;4903741;29;20231;-95
2021/09/23 04:39:22;;;;;;;8.45;6.80;;;7.00;99.90;;;;;;4903821;29;20231;-95
2021/09/23 04:41:49;;;;;;;6.10;5.50;;;7.00;99.90;;;;;;4903846;29;20207;-93
2021/09/23 04:44:17;;;;;;;5.95;4.97;;;7.00;99.90;;;;;;4903713;29;20218;-94
2021/09/23 04:46:44;;;;;;;11.50;5.68;;;7.00;99.90;;;;;;4903355;29;20244;-95
2021/09/23 04:49:11;;;;;;;7.28;5.30;;;7.00;99.90;;;;;;4903835;29;20207;-95
2021/09/23 04:51:40;;;;;;;6.75;5.40;;;6.90;99.90;;;;;;4903506;29;20231;-94
2021/09/23 04:54:08;;;;;;;8.10;5.85;;;6.90;99.90;;;;;;4903832;29;20218;-94
2021/09/23 04:56:35;;;;;;;6.93;5.65;;;6.90;99.90;;;;;;4903504;29;20227;-94
2021/09/23 04:59:05;;;;;;;8.27;5.32;;;7.00;99.90;;;;;;4903833;29;20187;-93
2021/09/23 05:01:35;;;;;;;7.60;6.15;;;7.00;99.90;;;;;;4903614;29;20223;-95
2021/09/23 05:04:11;;;;;;;6.85;5.13;;;7.00;99.90;;;;;;4903604;29;20187;-95
2021/09/23 05:06:51;;;;;;;6.22;5.53;;;6.90;99.90;;;;;;4903394;29;20301;-95
2021/09/23 05:09:21;;;;;;;6.25;5.00;;;6.90;99.90;;;;;;4903568;29;20195;-95
2021/09/23 05:11:50;;;;;;;7.80;5.53;;;6.90;99.90;;;;;;4903712;29;20195;-95
2021/09/23 05:14:29;;;;;;;6.43;5.38;;;6.80;99.90;;;;;;4903881;29;20202;-95
2021/09/23 05:17:01;;;;;;;6.57;5.93;;;6.80;99.90;;;;;;4903518;29;20259;-95
2021/09/23 05:19:28;;;;;;;6.25;5.35;;;6.80;99.90;;;;;;4903771;29;20199;-95
2021/09/23 05:22:04;;;;;;;7.22;5.88;;;6.80;99.90;;;;;;4903510;29;20198;-96
2021/09/23 05:24:32;;;;;;;8.32;5.63;;;6.80;99.90;;;;;;4903812;29;20191;-95
2021/09/23 05:27:02;;;;;;;8.30;5.68;;;6.80;99.90;;;;;;4902615;29;20256;-94
2021/09/23 05:29:30;;;;;;;6.00;5.40;;;6.80;99.90;;;;;;4903473;29;20199;-95
2021/09/23 05:32:00;;;;;;;6.63;5.90;;;6.90;99.90;;;;;;4903221;29;20207;-94
2021/09/23 05:34:30;;;;;;;6.90;5.47;;;6.80;99.90;;;;;;4903547;29;20194;-95
2021/09/23 05:36:57;;;;;;;8.45;7.03;;;6.90;99.90;;;;;;4902791;29;20218;-95
2021/09/23 05:39:26;;;;;;;5.93;5.32;;;6.90;99.90;;;;;;4903607;29;20298;-95
2021/09/23 05:41:53;;;;;;;7.30;5.60;;;6.90;99.90;;;;;;4903157;29;20206;-95
2021/09/23 05:44:26;;;;;;;6.57;5.18;;;6.90;99.90;;;;;;4903144;29;20195;-95
2021/09/23 05:47:00;;;;;;;7.70;6.50;;;7.00;99.90;;;;;;4902541;29;20215;-95
2021/09/23 05:49:30;;;;;;;9.43;8.02;;;7.00;99.90;;;;;;4902434;29;20203;-94
2021/09/23 05:51:59;;;;;;;14.93;8.48;;;7.20;99.90;;;;;;4902404;29;20207;-95
2021/09/23 05:54:28;;;;;;;13.32;7.85;;;7.50;99.90;;;;;;4902556;29;20227;-95
2021/09/23 05:56:55;;;;;;;10.18;8.38;;;7.70;99.90;;;;;;4901947;29;20227;-94
2021/09/23 05:59:24;;;;;;;11.35;7.97;;;7.90;99.90;;;;;;4902811;29;20195;-94
2021/09/23 06:01:54;;;;;;;11.80;8.40;;;8.00;99.90;;;;;;4902849;29;20223;-95
2021/09/23 06:04:22;;;;;;;8.60;7.07;;;8.20;99.90;;;;;;4903310;29;20200;-95
2021/09/23 06:06:49;;;;;;;10.85;8.27;;;8.20;99.90;;;;;;4902899;29;20215;-94
2021/09/23 06:09:22;;;;;;;7.95;6.65;;;8.40;99.90;;;;;;4903641;29;20190;-94
2021/09/23 06:11:52;;;;;;;9.13;7.00;;;8.50;99.90;;;;;;4903655;29;20247;-94
2021/09/23 06:14:22;;;;;;;13.00;7.57;;;8.60;99.90;;;;;;4903684;29;20179;-94
2021/09/23 06:16:52;;;;;;;11.35;8.20;;;8.70;99.90;;;;;;4902835;29;20240;-95
2021/09/23 06:19:20;;;;;;;8.52;7.60;;;8.80;99.90;;;;;;4902939;29;20183;-94
2021/09/23 06:21:49;;;;;;;13.63;8.07;;;8.90;99.90;;;;;;4904585;29;20203;-94
2021/09/23 06:24:17;;;;;;;10.35;7.70;;;9.00;99.90;;;;;;4907758;29;20278;-94
2021/09/23 06:26:44;;;;;;;14.38;7.72;;;9.10;99.90;;;;;;4907149;29;20222;-94
2021/09/23 06:29:14;;;;;;;10.60;8.00;;;9.10;99.90;;;;;;4907406;29;20218;-94
2021/09/23 06:31:41;;;;;;;10.90;7.47;;;9.20;99.90;;;;;;4907216;29;20203;-94
2021/09/23 06:34:09;;;;;;;8.65;7.22;;;9.30;99.90;;;;;;4907381;29;20214;-95
2021/09/23 06:36:36;;;;;;;10.10;7.35;;;9.40;99.90;;;;;;4907045;29;20269;-94
2021/09/23 06:39:07;;;;;;;9.38;7.50;;;9.50;99.90;;;;;;4907200;29;20187;-94
2021/09/23 06:41:34;;;;;;;8.88;7.13;;;9.60;99.90;;;;;;4907236;29;20230;-94
2021/09/23 06:44:03;;;;;;;8.02;6.72;;;9.70;99.90;;;;;;4907055;29;20191;-95
2021/09/23 06:46:35;;;;;;;10.00;6.20;;;9.80;99.90;;;;;;4906595;29;20611;-94
2021/09/23 06:49:02;;;;;;;7.47;6.05;;;10.00;99.90;;;;;;4906813;29;20216;-94
2021/09/23 06:51:33;;;;;;;9.60;6.80;;;10.10;99.90;;;;;;4906441;29;20211;-93
2021/09/23 06:59:32;;;;;;;8.30;6.38;;;10.50;99.90;;;;;;1210224;27;20207;-96
2021/09/23 07:02:25;;;;;;;8.55;6.00;;;10.70;99.90;;;;;;4901573;29;20196;-96
2021/09/23 07:05:26;;;;;;;5.90;5.15;;;10.90;99.90;;;;;;4907454;29;20183;-96
2021/09/23 07:11:39;;;;;;;7.47;5.40;;;11.50;99.90;;;;;;4888144;29;20239;-96
2021/09/23 07:14:30;;;;;;;5.80;4.32;;;11.90;99.90;;;;;;4873208;29;20180;-96
2021/09/23 07:17:28;;;;;;;4.60;4.20;;;12.20;99.90;;;;;;4888014;29;20177;-95
